sensor_id;sensor_type;location;lat;lon;timestamp;pressure;altitude;pressure_sealevel;temperature;humidity
23446;BME280;11895;48.738;9.320;2023-01-10T00:01:47;98513.97;;;6.54;100.00
23446;BME280;11895;48.738;9.320;2023-01-10T00:04:15;98510.97;;;6.63;100.00
23446;BME280;11895;48.738;9.320;2023-01-10T00:06:43;98508.13;;;6.67;100.00
23446;BME280;11895;48.738;9.320;2023-01-10T00:09:11;98514.78;;;6.56;100.00
23446;BME280;11895;48.738;9.320;2023-01-10T00:11:38;98527.34;;;6.54;100.00
23446;BME280;11895;48.738;9.320;2023-01-10T00:14:26;98518.72;;;6.46;100.00
23446;BME280;11895;48.738;9.320;2023-01-10T00:17:04;98523.13;;;6.47;100.00
23446;BME280;11895;48.738;9.320;2023-01-10T00:19:32;98523.25;;;6.68;100.00
23446;BME280;11895;48.738;9.320;2023-01-10T00:21:59;98531.59;;;6.84;100.00
23446;BME280;11895;48.738;9.320;2023-01-10T00:24:32;98533.16;;;6.91;100.00
23446;BME280;11895;48.738;9.320;2023-01-10T00:26:59;98537.06;;;6.81;100.00
23446;BME280;11895;48.738;9.320;2023-01-10T00:29:29;98534.13;;;6.89;100.00
23446;BME280;11895;48.738;9.320;2023-01-10T00:31:57;98542.16;;;6.89;100.00
23446;BME280;11895;48.738;9.320;2023-01-10T00:34:25;98547.97;;;7.00;100.00
23446;BME280;11895;48.738;9.320;2023-01-10T00:36:53;98555.53;;;7.14;100.00
23446;BME280;11895;48.738;9.320;2023-01-10T00:39:20;98555.41;;;7.17;100.00
23446;BME280;11895;48.738;9.320;2023-01-10T00:41:52;98563.69;;;7.34;100.00
23446;BME280;11895;48.738;9.320;2023-01-10T00:44:38;98562.06;;;7.30;100.00
23446;BME280;11895;48.738;9.320;2023-01-10T00:47:05;98559.97;;;7.38;100.00
23446;BME280;11895;48.738;9.320;2023-01-10T00:49:33;98565.78;;;7.26;100.00
23446;BME280;11895;48.738;9.320;2023-01-10T00:52:01;98564.69;;;7.32;100.00
23446;BME280;11895;48.738;9.320;2023-01-10T00:54:52;98568.06;;;7.37;100.00
23446;BME280;11895;48.738;9.320;2023-01-10T00:57:20;98573.13;;;7.44;100.00
23446;BME280;11895;48.738;9.320;2023-01-10T00:59:48;98576.50;;;7.26;100.00
23446;BME280;11895;48.738;9.320;2023-01-10T01:02:15;98575.28;;;7.35;100.00
23446;BME280;11895;48.738;9.320;2023-01-10T01:04:43;98577.34;;;7.52;100.00
23446;BME280;11895;48.738;9.320;2023-01-10T01:07:11;98580.72;;;7.57;100.00
23446;BME280;11895;48.738;9.320;2023-01-10T01:09:39;98588.66;;;7.60;100.00
23446;BME280;11895;48.738;9.320;2023-01-10T01:12:26;98592.00;;;7.41;100.00
23446;BME280;11895;48.738;9.320;2023-01-10T01:14:54;98597.66;;;7.57;100.00
23446;BME280;11895;48.738;9.320;2023-01-10T01:17:22;98603.25;;;7.51;100.00
23446;BME280;11895;48.738;9.320;2023-01-10T01:19:50;98605.88;;;7.53;100.00
23446;BME280;11895;48.738;9.320;2023-01-10T01:22:18;98606.03;;;7.48;100.00
23446;BME280;11895;48.738;9.320;2023-01-10T01:24:46;98618.69;;;7.44;100.00
23446;BME280;11895;48.738;9.320;2023-01-10T01:27:13;98629.41;;;7.44;100.00
23446;BME280;11895;48.738;9.320;2023-01-10T01:29:41;98626.63;;;7.47;100.00
23446;BME280;11895;48.738;9.320;2023-01-10T01:32:10;98631.97;;;7.47;100.00
23446;BME280;11895;48.738;9.320;2023-01-10T01:34:38;98632.13;;;7.43;100.00
23446;BME280;11895;48.738;9.320;2023-01-10T01:37:06;98645.66;;;7.40;100.00
23446;BME280;11895;48.738;9.320;2023-01-10T01:39:34;98652.47;;;7.48;100.00
23446;BME280;11895;48.738;9.320;2023-01-10T01:42:01;98660.03;;;7.37;100.00
23446;BME280;11895;48.738;9.320;2023-01-10T01:44:31;98658.06;;;7.42;100.00
23446;BME280;11895;48.738;9.320;2023-01-10T01:47:11;98669.56;;;7.46;100.00
23446;BME280;11895;48.738;9.320;2023-01-10T01:49:49;98672.81;;;7.29;100.00
23446;BME280;11895;48.738;9.320;2023-01-10T01:52:29;98686.06;;;7.09;100.00
23446;BME280;11895;48.738;9.320;2023-01-10T01:55:01;98685.13;;;7.35;100.00
23446;BME280;11895;48.738;9.320;2023-01-10T01:57:29;98692.28;;;7.34;100.00
23446;BME280;11895;48.738;9.320;2023-01-10T02:00:00;98694.06;;;7.35;100.00
23446;BME280;11895;48.738;9.320;2023-01-10T02:02:43;98702.03;;;7.12;100.00
23446;BME280;11895;48.738;9.320;2023-01-10T02:05:29;98706.53;;;7.10;100.00
23446;BME280;11895;48.738;9.320;2023-01-10T02:07:59;98715.56;;;7.07;100.00
23446;BME280;11895;48.738;9.320;2023-01-10T02:13:12;98731.13;;;7.47;100.00
23446;BME280;11895;48.738;9.320;2023-01-10T02:15:42;98733.09;;;7.42;100.00
23446;BME280;11895;48.738;9.320;2023-01-10T02:18:10;98738.56;;;7.39;100.00
23446;BME280;11895;48.738;9.320;2023-01-10T02:24:59;98747.75;;;7.57;100.00
23446;BME280;11895;48.738;9.320;2023-01-10T02:28:23;98764.84;;;7.55;100.00
23446;BME280;11895;48.738;9.320;2023-01-10T02:31:36;98765.25;;;7.42;100.00
23446;BME280;11895;48.738;9.320;2023-01-10T02:37:37;98788.34;;;6.93;100.00
23446;BME280;11895;48.738;9.320;2023-01-10T02:43:16;98794.94;;;6.54;100.00
23446;BME280;11895;48.738;9.320;2023-01-10T02:48:38;98789.16;;;6.38;100.00
23446;BME280;11895;48.738;9.320;2023-01-10T02:51:23;98798.31;;;6.31;100.00
23446;BME280;11895;48.738;9.320;2023-01-10T02:54:10;98791.91;;;6.36;100.00
23446;BME280;11895;48.738;9.320;2023-01-10T03:03:07;98819.44;;;6.09;100.00
23446;BME280;11895;48.738;9.320;2023-01-10T03:06:15;98833.38;;;5.87;100.00
23446;BME280;11895;48.738;9.320;2023-01-10T03:08:55;98833.69;;;5.77;100.00
23446;BME280;11895;48.738;9.320;2023-01-10T03:11:30;98845.19;;;5.80;100.00
23446;BME280;11895;48.738;9.320;2023-01-10T03:14:21;98865.13;;;5.67;100.00
23446;BME280;11895;48.738;9.320;2023-01-10T03:17:03;98864.00;;;5.76;100.00
23446;BME280;11895;48.738;9.320;2023-01-10T03:19:39;98868.97;;;5.89;100.00
23446;BME280;11895;48.738;9.320;2023-01-10T03:22:10;98878.25;;;5.75;100.00
23446;BME280;11895;48.738;9.320;2023-01-10T03:24:48;98889.44;;;5.90;100.00
23446;BME280;11895;48.738;9.320;2023-01-10T03:27:49;98888.97;;;6.09;100.00
23446;BME280;11895;48.738;9.320;2023-01-10T03:30:57;98905.78;;;5.78;100.00
23446;BME280;11895;48.738;9.320;2023-01-10T03:33:29;98912.63;;;5.91;100.00
23446;BME280;11895;48.738;9.320;2023-01-10T03:39:12;98925.06;;;5.92;100.00
23446;BME280;11895;48.738;9.320;2023-01-10T03:42:01;98921.47;;;5.93;100.00
23446;BME280;11895;48.738;9.320;2023-01-10T03:45:03;98924.19;;;5.92;100.00
23446;BME280;11895;48.738;9.320;2023-01-10T03:47:39;98922.97;;;6.04;100.00
23446;BME280;11895;48.738;9.320;2023-01-10T03:50:19;98928.13;;;6.11;100.00
23446;BME280;11895;48.738;9.320;2023-01-10T03:52:48;98935.44;;;6.05;100.00
23446;BME280;11895;48.738;9.320;2023-01-10T03:55:22;98947.66;;;6.15;100.00
23446;BME280;11895;48.738;9.320;2023-01-10T03:57:52;98940.97;;;6.31;100.00
23446;BME280;11895;48.738;9.320;2023-01-10T04:00:20;98946.44;;;6.27;100.00
23446;BME280;11895;48.738;9.320;2023-01-10T04:02:48;98952.72;;;6.57;100.00
23446;BME280;11895;48.738;9.320;2023-01-10T04:05:16;98968.63;;;6.30;100.00
23446;BME280;11895;48.738;9.320;2023-01-10T04:07:43;98962.25;;;6.36;100.00
23446;BME280;11895;48.738;9.320;2023-01-10T04:10:11;98964.75;;;6.42;100.00
23446;BME280;11895;48.738;9.320;2023-01-10T04:12:39;98971.13;;;6.36;100.00
23446;BME280;11895;48.738;9.320;2023-01-10T04:15:07;98974.78;;;6.34;100.00
23446;BME280;11895;48.738;9.320;2023-01-10T04:17:35;98976.16;;;6.49;100.00
23446;BME280;11895;48.738;9.320;2023-01-10T04:20:03;98993.41;;;6.38;100.00
23446;BME280;11895;48.738;9.320;2023-01-10T04:22:31;98988.31;;;6.28;100.00
23446;BME280;11895;48.738;9.320;2023-01-10T04:24:59;98995.38;;;5.96;100.00
23446;BME280;11895;48.738;9.320;2023-01-10T04:27:26;98994.56;;;5.92;100.00
23446;BME280;11895;48.738;9.320;2023-01-10T04:29:54;99007.94;;;5.92;100.00
23446;BME280;11895;48.738;9.320;2023-01-10T04:32:22;99008.03;;;5.88;100.00
23446;BME280;11895;48.738;9.320;2023-01-10T04:34:50;99021.31;;;5.92;100.00
23446;BME280;11895;48.738;9.320;2023-01-10T04:37:17;99026.84;;;5.83;100.00
23446;BME280;11895;48.738;9.320;2023-01-10T04:39:46;99030.25;;;5.91;100.00
23446;BME280;11895;48.738;9.320;2023-01-10T04:42:14;99025.50;;;6.03;100.00
23446;BME280;11895;48.738;9.320;2023-01-10T04:44:42;99033.25;;;6.15;100.00
23446;BME280;11895;48.738;9.320;2023-01-10T04:47:10;99037.50;;;6.22;100.00
23446;BME280;11895;48.738;9.320;2023-01-10T04:49:38;99036.28;;;6.35;100.00
23446;BME280;11895;48.738;9.320;2023-01-10T04:52:05;99043.38;;;6.36;100.00
23446;BME280;11895;48.738;9.320;2023-01-10T04:54:33;99046.28;;;6.27;100.00
23446;BME280;11895;48.738;9.320;2023-01-10T04:57:01;99054.28;;;6.29;100.00
23446;BME280;11895;48.738;9.320;2023-01-10T04:59:28;99057.00;;;6.27;100.00
23446;BME280;11895;48.738;9.320;2023-01-10T05:01:57;99059.13;;;6.14;100.00
23446;BME280;11895;48.738;9.320;2023-01-10T05:04:25;99070.59;;;6.18;100.00
23446;BME280;11895;48.738;9.320;2023-01-10T05:06:52;99074.94;;;6.22;100.00
23446;BME280;11895;48.738;9.320;2023-01-10T05:09:20;99073.16;;;5.85;100.00
23446;BME280;11895;48.738;9.320;2023-01-10T05:11:47;99087.41;;;5.84;100.00
23446;BME280;11895;48.738;9.320;2023-01-10T05:14:15;99096.19;;;5.89;100.00
23446;BME280;11895;48.738;9.320;2023-01-10T05:16:43;99094.59;;;5.82;100.00
23446;BME280;11895;48.738;9.320;2023-01-10T05:19:10;99091.63;;;5.96;100.00
23446;BME280;11895;48.738;9.320;2023-01-10T05:21:38;99105.72;;;6.03;100.00
23446;BME280;11895;48.738;9.320;2023-01-10T05:24:07;99108.41;;;6.03;100.00
23446;BME280;11895;48.738;9.320;2023-01-10T05:26:35;99113.38;;;6.18;100.00
23446;BME280;11895;48.738;9.320;2023-01-10T05:29:03;99110.91;;;6.10;100.00
23446;BME280;11895;48.738;9.320;2023-01-10T05:31:31;99109.66;;;6.25;100.00
23446;BME280;11895;48.738;9.320;2023-01-10T05:33:58;99103.56;;;6.18;100.00
23446;BME280;11895;48.738;9.320;2023-01-10T05:36:26;99115.59;;;5.99;100.00
23446;BME280;11895;48.738;9.320;2023-01-10T05:38:53;99120.03;;;6.02;100.00
23446;BME280;11895;48.738;9.320;2023-01-10T05:41:21;99126.28;;;6.01;100.00
23446;BME280;11895;48.738;9.320;2023-01-10T05:43:49;99128.88;;;6.05;100.00
23446;BME280;11895;48.738;9.320;2023-01-10T05:46:18;99135.91;;;6.09;100.00
23446;BME280;11895;48.738;9.320;2023-01-10T05:48:46;99128.16;;;5.97;100.00
23446;BME280;11895;48.738;9.320;2023-01-10T05:51:17;99135.84;;;6.11;100.00
23446;BME280;11895;48.738;9.320;2023-01-10T05:53:45;99149.03;;;6.20;100.00
23446;BME280;11895;48.738;9.320;2023-01-10T05:56:14;99158.47;;;6.35;100.00
23446;BME280;11895;48.738;9.320;2023-01-10T05:58:42;99159.28;;;6.38;100.00
23446;BME280;11895;48.738;9.320;2023-01-10T06:01:13;99167.16;;;6.43;100.00
23446;BME280;11895;48.738;9.320;2023-01-10T06:03:41;99178.56;;;6.53;100.00
23446;BME280;11895;48.738;9.320;2023-01-10T06:06:09;99171.38;;;6.55;100.00
23446;BME280;11895;48.738;9.320;2023-01-10T06:08:37;99164.31;;;6.13;100.00
23446;BME280;11895;48.738;9.320;2023-01-10T06:11:07;99177.66;;;6.15;100.00
23446;BME280;11895;48.738;9.320;2023-01-10T06:13:41;99170.25;;;6.26;100.00
23446;BME280;11895;48.738;9.320;2023-01-10T06:16:08;99170.81;;;6.40;100.00
23446;BME280;11895;48.738;9.320;2023-01-10T06:18:36;99164.84;;;6.29;100.00
23446;BME280;11895;48.738;9.320;2023-01-10T06:21:04;99157.16;;;6.14;100.00
23446;BME280;11895;48.738;9.320;2023-01-10T06:23:47;99170.88;;;5.99;100.00
23446;BME280;11895;48.738;9.320;2023-01-10T06:26:15;99172.06;;;5.84;100.00
23446;BME280;11895;48.738;9.320;2023-01-10T06:28:43;99178.56;;;5.72;100.00
23446;BME280;11895;48.738;9.320;2023-01-10T06:31:11;99177.47;;;5.82;100.00
23446;BME280;11895;48.738;9.320;2023-01-10T06:33:41;99178.94;;;5.97;100.00
23446;BME280;11895;48.738;9.320;2023-01-10T06:36:10;99188.88;;;5.90;100.00
23446;BME280;11895;48.738;9.320;2023-01-10T06:38:38;99186.81;;;6.05;100.00
23446;BME280;11895;48.738;9.320;2023-01-10T06:41:05;99187.91;;;6.33;100.00
23446;BME280;11895;48.738;9.320;2023-01-10T06:43:41;99199.97;;;6.53;100.00
23446;BME280;11895;48.738;9.320;2023-01-10T06:46:10;99208.84;;;6.55;100.00
23446;BME280;11895;48.738;9.320;2023-01-10T06:48:38;99218.56;;;6.57;100.00
23446;BME280;11895;48.738;9.320;2023-01-10T06:51:06;99214.56;;;6.75;100.00
23446;BME280;11895;48.738;9.320;2023-01-10T06:53:33;99216.38;;;6.75;100.00
23446;BME280;11895;48.738;9.320;2023-01-10T06:56:01;99225.00;;;6.87;100.00
23446;BME280;11895;48.738;9.320;2023-01-10T06:58:29;99220.25;;;6.99;100.00
23446;BME280;11895;48.738;9.320;2023-01-10T07:00:57;99231.59;;;7.08;100.00
23446;BME280;11895;48.738;9.320;2023-01-10T07:03:25;99232.88;;;6.93;100.00
23446;BME280;11895;48.738;9.320;2023-01-10T07:05:53;99235.63;;;6.90;100.00
23446;BME280;11895;48.738;9.320;2023-01-10T07:08:21;99234.47;;;7.01;100.00
23446;BME280;11895;48.738;9.320;2023-01-10T07:10:48;99245.69;;;7.15;100.00
23446;BME280;11895;48.738;9.320;2023-01-10T07:13:17;99255.78;;;7.05;100.00
23446;BME280;11895;48.738;9.320;2023-01-10T07:15:47;99248.25;;;7.21;100.00
23446;BME280;11895;48.738;9.320;2023-01-10T07:18:14;99253.97;;;7.06;100.00
23446;BME280;11895;48.738;9.320;2023-01-10T07:20:43;99262.47;;;7.23;100.00
23446;BME280;11895;48.738;9.320;2023-01-10T07:23:11;99266.13;;;7.20;100.00
23446;BME280;11895;48.738;9.320;2023-01-10T07:25:39;99280.81;;;7.38;100.00
23446;BME280;11895;48.738;9.320;2023-01-10T07:28:07;99288.44;;;7.19;100.00
23446;BME280;11895;48.738;9.320;2023-01-10T07:30:34;99292.41;;;7.40;100.00
23446;BME280;11895;48.738;9.320;2023-01-10T07:33:02;99299.69;;;7.34;100.00
23446;BME280;11895;48.738;9.320;2023-01-10T07:35:30;99299.81;;;7.29;100.00
23446;BME280;11895;48.738;9.320;2023-01-10T07:38:02;99298.06;;;7.28;100.00
23446;BME280;11895;48.738;9.320;2023-01-10T07:40:30;99296.47;;;7.21;100.00
23446;BME280;11895;48.738;9.320;2023-01-10T07:43:01;99291.25;;;7.15;100.00
23446;BME280;11895;48.738;9.320;2023-01-10T07:45:30;99292.25;;;7.11;100.00
23446;BME280;11895;48.738;9.320;2023-01-10T07:47:59;99299.16;;;7.21;100.00
23446;BME280;11895;48.738;9.320;2023-01-10T07:50:30;99303.34;;;7.31;100.00
23446;BME280;11895;48.738;9.320;2023-01-10T07:53:00;99309.13;;;7.48;100.00
23446;BME280;11895;48.738;9.320;2023-01-10T07:55:30;99326.91;;;7.53;100.00
23446;BME280;11895;48.738;9.320;2023-01-10T07:57:58;99325.84;;;7.60;100.00
23446;BME280;11895;48.738;9.320;2023-01-10T08:00:26;99338.38;;;7.58;100.00
23446;BME280;11895;48.738;9.320;2023-01-10T08:02:55;99339.56;;;7.47;100.00
23446;BME280;11895;48.738;9.320;2023-01-10T08:05:32;99343.53;;;7.67;100.00
23446;BME280;11895;48.738;9.320;2023-01-10T08:08:08;99350.72;;;7.65;100.00
23446;BME280;11895;48.738;9.320;2023-01-10T08:10:39;99355.06;;;7.70;100.00
23446;BME280;11895;48.738;9.320;2023-01-10T08:13:07;99352.00;;;7.84;100.00
23446;BME280;11895;48.738;9.320;2023-01-10T08:15:48;99365.41;;;7.84;100.00
23446;BME280;11895;48.738;9.320;2023-01-10T08:18:22;99360.69;;;7.92;100.00
23446;BME280;11895;48.738;9.320;2023-01-10T08:20:59;99364.88;;;8.04;100.00
23446;BME280;11895;48.738;9.320;2023-01-10T08:23:46;99366.44;;;8.13;100.00
23446;BME280;11895;48.738;9.320;2023-01-10T08:26:20;99365.78;;;7.70;100.00
23446;BME280;11895;48.738;9.320;2023-01-10T08:29:08;99374.16;;;7.91;100.00
23446;BME280;11895;48.738;9.320;2023-01-10T08:31:44;99378.06;;;8.12;100.00
23446;BME280;11895;48.738;9.320;2023-01-10T08:34:24;99375.66;;;8.03;100.00
23446;BME280;11895;48.738;9.320;2023-01-10T08:36:53;99374.22;;;8.22;100.00
23446;BME280;11895;48.738;9.320;2023-01-10T08:39:47;99379.59;;;8.22;100.00
23446;BME280;11895;48.738;9.320;2023-01-10T08:42:33;99392.09;;;8.23;100.00
23446;BME280;11895;48.738;9.320;2023-01-10T08:45:01;99382.28;;;8.20;100.00
23446;BME280;11895;48.738;9.320;2023-01-10T08:47:29;99388.72;;;8.15;100.00
23446;BME280;11895;48.738;9.320;2023-01-10T08:49:57;99388.53;;;8.21;100.00
23446;BME280;11895;48.738;9.320;2023-01-10T08:52:24;99385.88;;;8.54;100.00
23446;BME280;11895;48.738;9.320;2023-01-10T08:54:52;99394.91;;;8.17;100.00
23446;BME280;11895;48.738;9.320;2023-01-10T08:57:20;99389.59;;;8.15;100.00
23446;BME280;11895;48.738;9.320;2023-01-10T08:59:47;99397.88;;;8.40;100.00
23446;BME280;11895;48.738;9.320;2023-01-10T09:02:15;99394.63;;;8.28;100.00
23446;BME280;11895;48.738;9.320;2023-01-10T09:04:43;99401.31;;;8.13;100.00
23446;BME280;11895;48.738;9.320;2023-01-10T09:07:11;99414.19;;;8.31;100.00
23446;BME280;11895;48.738;9.320;2023-01-10T09:09:39;99414.31;;;8.28;100.00
23446;BME280;11895;48.738;9.320;2023-01-10T09:12:32;99415.25;;;8.25;100.00
23446;BME280;11895;48.738;9.320;2023-01-10T09:15:18;99417.56;;;8.07;100.00
23446;BME280;11895;48.738;9.320;2023-01-10T09:17:47;99421.41;;;7.96;100.00
23446;BME280;11895;48.738;9.320;2023-01-10T09:20:16;99422.91;;;8.07;100.00
23446;BME280;11895;48.738;9.320;2023-01-10T09:22:43;99423.25;;;7.94;100.00
23446;BME280;11895;48.738;9.320;2023-01-10T09:25:11;99439.66;;;7.82;100.00
23446;BME280;11895;48.738;9.320;2023-01-10T09:27:39;99443.09;;;7.87;100.00
23446;BME280;11895;48.738;9.320;2023-01-10T09:30:07;99443.25;;;7.81;100.00
23446;BME280;11895;48.738;9.320;2023-01-10T09:32:35;99449.25;;;7.57;100.00
23446;BME280;11895;48.738;9.320;2023-01-10T09:35:03;99455.53;;;7.56;100.00
23446;BME280;11895;48.738;9.320;2023-01-10T09:37:31;99459.78;;;7.64;100.00
23446;BME280;11895;48.738;9.320;2023-01-10T09:40:00;99462.66;;;7.57;100.00
23446;BME280;11895;48.738;9.320;2023-01-10T09:49:05;99479.41;;;7.28;100.00
23446;BME280;11895;48.738;9.320;2023-01-10T09:51:57;99478.59;;;7.24;100.00
23446;BME280;11895;48.738;9.320;2023-01-10T09:54:27;99481.56;;;7.51;100.00
23446;BME280;11895;48.738;9.320;2023-01-10T09:56:58;99478.06;;;7.84;100.00
23446;BME280;11895;48.738;9.320;2023-01-10T09:59:35;99476.78;;;7.99;100.00
23446;BME280;11895;48.738;9.320;2023-01-10T10:02:29;99475.22;;;7.90;100.00
23446;BME280;11895;48.738;9.320;2023-01-10T10:05:11;99484.50;;;8.13;100.00
23446;BME280;11895;48.738;9.320;2023-01-10T10:07:42;99495.59;;;7.97;100.00
23446;BME280;11895;48.738;9.320;2023-01-10T10:10:15;99492.91;;;7.99;100.00
23446;BME280;11895;48.738;9.320;2023-01-10T10:15:45;99500.19;;;7.92;100.00
23446;BME280;11895;48.738;9.320;2023-01-10T10:21:38;99486.97;;;7.47;100.00
23446;BME280;11895;48.738;9.320;2023-01-10T10:27:23;99483.25;;;7.55;100.00
23446;BME280;11895;48.738;9.320;2023-01-10T10:39:14;99476.16;;;7.88;100.00
23446;BME280;11895;48.738;9.320;2023-01-10T10:41:49;99478.19;;;7.78;100.00
23446;BME280;11895;48.738;9.320;2023-01-10T10:47:20;99482.41;;;8.24;100.00
23446;BME280;11895;48.738;9.320;2023-01-10T10:52:32;99486.38;;;8.43;100.00
23446;BME280;11895;48.738;9.320;2023-01-10T10:55:03;99484.41;;;7.80;100.00
23446;BME280;11895;48.738;9.320;2023-01-10T10:57:33;99478.84;;;7.88;100.00
23446;BME280;11895;48.738;9.320;2023-01-10T11:00:06;99482.28;;;7.94;100.00
23446;BME280;11895;48.738;9.320;2023-01-10T11:02:48;99476.47;;;8.11;100.00
23446;BME280;11895;48.738;9.320;2023-01-10T11:05:36;99473.91;;;8.42;100.00
23446;BME280;11895;48.738;9.320;2023-01-10T11:08:07;99482.69;;;8.47;100.00
23446;BME280;11895;48.738;9.320;2023-01-10T11:10:38;99474.34;;;8.24;100.00
23446;BME280;11895;48.738;9.320;2023-01-10T11:13:20;99490.69;;;8.15;100.00
23446;BME280;11895;48.738;9.320;2023-01-10T11:15:55;99486.94;;;8.22;100.00
23446;BME280;11895;48.738;9.320;2023-01-10T11:18:28;99486.56;;;8.37;100.00
23446;BME280;11895;48.738;9.320;2023-01-10T11:21:10;99497.59;;;8.59;100.00
23446;BME280;11895;48.738;9.320;2023-01-10T11:23:49;99494.03;;;8.59;100.00
23446;BME280;11895;48.738;9.320;2023-01-10T11:26:26;99482.69;;;8.47;100.00
23446;BME280;11895;48.738;9.320;2023-01-10T11:29:15;99493.47;;;8.79;100.00
23446;BME280;11895;48.738;9.320;2023-01-10T11:31:50;99481.28;;;8.65;100.00
23446;BME280;11895;48.738;9.320;2023-01-10T11:37:00;99499.56;;;8.85;100.00
23446;BME280;11895;48.738;9.320;2023-01-10T11:39:30;99500.56;;;8.48;100.00
23446;BME280;11895;48.738;9.320;2023-01-10T11:48:08;99489.50;;;7.54;100.00
23446;BME280;11895;48.738;9.320;2023-01-10T11:50:49;99494.97;;;7.49;100.00
23446;BME280;11895;48.738;9.320;2023-01-10T11:53:39;99496.09;;;7.78;100.00
23446;BME280;11895;48.738;9.320;2023-01-10T11:56:21;99496.09;;;7.78;100.00
23446;BME280;11895;48.738;9.320;2023-01-10T11:58:59;99494.75;;;7.21;100.00
23446;BME280;11895;48.738;9.320;2023-01-10T12:04:28;99501.75;;;7.27;100.00
23446;BME280;11895;48.738;9.320;2023-01-10T12:07:05;99500.63;;;6.97;100.00
23446;BME280;11895;48.738;9.320;2023-01-10T12:09:37;99502.19;;;6.62;100.00
23446;BME280;11895;48.738;9.320;2023-01-10T12:12:35;99492.28;;;6.67;100.00
23446;BME280;11895;48.738;9.320;2023-01-10T12:15:26;99489.91;;;6.53;100.00
23446;BME280;11895;48.738;9.320;2023-01-10T12:17:58;99481.97;;;6.49;100.00
23446;BME280;11895;48.738;9.320;2023-01-10T12:20:34;99482.66;;;6.58;100.00
23446;BME280;11895;48.738;9.320;2023-01-10T12:23:18;99475.28;;;7.13;100.00
23446;BME280;11895;48.738;9.320;2023-01-10T12:25:51;99458.38;;;7.50;100.00
23446;BME280;11895;48.738;9.320;2023-01-10T12:28:43;99451.75;;;7.63;100.00
23446;BME280;11895;48.738;9.320;2023-01-10T12:31:21;99440.19;;;7.96;100.00
23446;BME280;11895;48.738;9.320;2023-01-10T12:33:56;99436.06;;;8.52;100.00
23446;BME280;11895;48.738;9.320;2023-01-10T12:36:32;99437.03;;;8.80;100.00
23446;BME280;11895;48.738;9.320;2023-01-10T12:39:38;99422.56;;;9.14;100.00
23446;BME280;11895;48.738;9.320;2023-01-10T12:42:13;99426.34;;;9.07;100.00
23446;BME280;11895;48.738;9.320;2023-01-10T12:45:24;99427.25;;;8.46;100.00
23446;BME280;11895;48.738;9.320;2023-01-10T12:47:56;99422.94;;;8.72;100.00
23446;BME280;11895;48.738;9.320;2023-01-10T12:50:35;99416.22;;;8.56;100.00
23446;BME280;11895;48.738;9.320;2023-01-10T12:55:43;99418.16;;;10.45;100.00
23446;BME280;11895;48.738;9.320;2023-01-10T12:58:21;99414.59;;;11.15;100.00
23446;BME280;11895;48.738;9.320;2023-01-10T13:01:02;99402.53;;;11.47;100.00
23446;BME280;11895;48.738;9.320;2023-01-10T13:03:32;99424.59;;;11.12;100.00
23446;BME280;11895;48.738;9.320;2023-01-10T13:09:20;99408.34;;;10.91;100.00
23446;BME280;11895;48.738;9.320;2023-01-10T13:12:03;99421.72;;;10.46;100.00
23446;BME280;11895;48.738;9.320;2023-01-10T13:14:43;99428.81;;;9.97;100.00
23446;BME280;11895;48.738;9.320;2023-01-10T13:22:53;99404.34;;;10.54;100.00
23446;BME280;11895;48.738;9.320;2023-01-10T13:25:30;99398.75;;;11.07;100.00
23446;BME280;11895;48.738;9.320;2023-01-10T13:28:19;99403.00;;;11.79;100.00
23446;BME280;11895;48.738;9.320;2023-01-10T13:30:52;99401.78;;;11.22;100.00
23446;BME280;11895;48.738;9.320;2023-01-10T13:33:27;99409.84;;;10.51;100.00
23446;BME280;11895;48.738;9.320;2023-01-10T13:36:05;99409.91;;;9.98;100.00
23446;BME280;11895;48.738;9.320;2023-01-10T13:38:57;99404.03;;;9.87;100.00
23446;BME280;11895;48.738;9.320;2023-01-10T14:00:52;99419.09;;;10.44;100.00
23446;BME280;11895;48.738;9.320;2023-01-10T14:03:51;99410.91;;;11.40;100.00
23446;BME280;11895;48.738;9.320;2023-01-10T14:09:00;99411.19;;;12.40;92.56
23446;BME280;11895;48.738;9.320;2023-01-10T14:11:47;99420.25;;;12.39;90.03
23446;BME280;11895;48.738;9.320;2023-01-10T14:14:40;99420.66;;;12.30;78.95
23446;BME280;11895;48.738;9.320;2023-01-10T14:17:13;99411.72;;;12.28;75.56
23446;BME280;11895;48.738;9.320;2023-01-10T14:19:47;99419.31;;;13.37;70.45
23446;BME280;11895;48.738;9.320;2023-01-10T14:22:29;99414.66;;;13.58;63.94
23446;BME280;11895;48.738;9.320;2023-01-10T14:25:24;99417.72;;;12.94;69.09
23446;BME280;11895;48.738;9.320;2023-01-10T14:27:52;99414.03;;;13.16;66.64
23446;BME280;11895;48.738;9.320;2023-01-10T14:33:16;99424.00;;;13.89;64.87
23446;BME280;11895;48.738;9.320;2023-01-10T14:35:49;99428.59;;;12.74;74.84
23446;BME280;11895;48.738;9.320;2023-01-10T14:38:26;99422.00;;;11.99;79.28
23446;BME280;11895;48.738;9.320;2023-01-10T14:41:11;99413.72;;;11.82;82.79
23446;BME280;11895;48.738;9.320;2023-01-10T14:43:47;99421.09;;;11.33;91.75
23446;BME280;11895;48.738;9.320;2023-01-10T14:46:28;99422.00;;;10.38;96.42
23446;BME280;11895;48.738;9.320;2023-01-10T14:49:01;99421.50;;;10.27;96.92
23446;BME280;11895;48.738;9.320;2023-01-10T14:51:30;99417.63;;;10.34;100.00
23446;BME280;11895;48.738;9.320;2023-01-10T14:54:08;99418.38;;;10.13;100.00
23446;BME280;11895;48.738;9.320;2023-01-10T14:56:44;99410.38;;;9.85;100.00
23446;BME280;11895;48.738;9.320;2023-01-10T15:02:02;99396.03;;;9.84;100.00
23446;BME280;11895;48.738;9.320;2023-01-10T15:04:36;99389.78;;;9.84;100.00
23446;BME280;11895;48.738;9.320;2023-01-10T15:07:15;99392.38;;;9.60;100.00
23446;BME280;11895;48.738;9.320;2023-01-10T15:10:22;99391.81;;;9.77;100.00
23446;BME280;11895;48.738;9.320;2023-01-10T15:12:53;99383.97;;;9.96;100.00
23446;BME280;11895;48.738;9.320;2023-01-10T15:15:36;99383.94;;;9.71;100.00
23446;BME280;11895;48.738;9.320;2023-01-10T15:20:46;99372.75;;;9.57;100.00
23446;BME280;11895;48.738;9.320;2023-01-10T15:23:15;99360.44;;;9.76;100.00
23446;BME280;11895;48.738;9.320;2023-01-10T15:25:43;99362.78;;;9.87;100.00